sensor_id;sensor_type;location;lat;lon;timestamp;pressure;altitude;pressure_sealevel;temperature;humidity
12594;BME280;6362;50.208;9.182;2023-04-19T00:02:21;100665.59;;;9.66;70.40
12594;BME280;6362;50.208;9.182;2023-04-19T00:04:47;100663.88;;;9.63;70.81
12594;BME280;6362;50.208;9.182;2023-04-19T00:07:13;100669.09;;;9.66;70.89
12594;BME280;6362;50.208;9.182;2023-04-19T00:09:39;100664.72;;;9.65;71.11
12594;BME280;6362;50.208;9.182;2023-04-19T00:12:04;100668.19;;;9.66;71.29
12594;BME280;6362;50.208;9.182;2023-04-19T00:14:30;100659.53;;;9.65;71.05
12594;BME280;6362;50.208;9.182;2023-04-19T00:16:55;100658.72;;;9.66;70.82
12594;BME280;6362;50.208;9.182;2023-04-19T00:19:21;100649.16;;;9.65;71.14
12594;BME280;6362;50.208;9.182;2023-04-19T00:21:47;100638.75;;;9.64;71.48
12594;BME280;6362;50.208;9.182;2023-04-19T00:24:13;100652.59;;;9.64;71.56
12594;BME280;6362;50.208;9.182;2023-04-19T00:26:38;100647.41;;;9.64;71.05
12594;BME280;6362;50.208;9.182;2023-04-19T00:29:04;100647.41;;;9.64;71.76
12594;BME280;6362;50.208;9.182;2023-04-19T00:31:29;100650.00;;;9.64;71.33
12594;BME280;6362;50.208;9.182;2023-04-19T00:33:55;100644.81;;;9.66;71.46
12594;BME280;6362;50.208;9.182;2023-04-19T00:36:21;100651.75;;;9.64;71.34
12594;BME280;6362;50.208;9.182;2023-04-19T00:38:46;100643.94;;;9.62;71.75
12594;BME280;6362;50.208;9.182;2023-04-19T00:41:11;100643.94;;;9.62;71.82
12594;BME280;6362;50.208;9.182;2023-04-19T00:43:37;100640.44;;;9.60;72.19
12594;BME280;6362;50.208;9.182;2023-04-19T00:46:04;100646.53;;;9.61;71.82
12594;BME280;6362;50.208;9.182;2023-04-19T00:48:29;100635.25;;;9.57;72.17
12594;BME280;6362;50.208;9.182;2023-04-19T00:50:55;100633.53;;;9.58;72.18
12594;BME280;6362;50.208;9.182;2023-04-19T00:53:21;100632.66;;;9.56;72.22
12594;BME280;6362;50.208;9.182;2023-04-19T00:55:47;100636.13;;;9.58;72.18
12594;BME280;6362;50.208;9.182;2023-04-19T00:58:15;100630.91;;;9.56;72.47
12594;BME280;6362;50.208;9.182;2023-04-19T01:00:43;100626.59;;;9.57;72.53
12594;BME280;6362;50.208;9.182;2023-04-19T01:03:08;100627.41;;;9.54;72.42
12594;BME280;6362;50.208;9.182;2023-04-19T01:05:34;100620.50;;;9.53;72.24
12594;BME280;6362;50.208;9.182;2023-04-19T01:07:59;100619.63;;;9.52;72.77
12594;BME280;6362;50.208;9.182;2023-04-19T01:10:25;100623.09;;;9.51;72.64
12594;BME280;6362;50.208;9.182;2023-04-19T01:12:51;100619.63;;;9.52;72.76
12594;BME280;6362;50.208;9.182;2023-04-19T01:15:17;100617.91;;;9.53;72.69
12594;BME280;6362;50.208;9.182;2023-04-19T01:17:42;100622.22;;;9.52;72.95
12594;BME280;6362;50.208;9.182;2023-04-19T01:20:08;100619.63;;;9.51;72.66
12594;BME280;6362;50.208;9.182;2023-04-19T01:22:34;100618.75;;;9.50;72.77
12594;BME280;6362;50.208;9.182;2023-04-19T01:25:02;100617.84;;;9.48;72.73
12594;BME280;6362;50.208;9.182;2023-04-19T01:27:29;100615.25;;;9.44;73.23
12594;BME280;6362;50.208;9.182;2023-04-19T01:29:54;100619.59;;;9.45;73.01
12594;BME280;6362;50.208;9.182;2023-04-19T01:32:20;100616.94;;;9.42;73.26
12594;BME280;6362;50.208;9.182;2023-04-19T01:34:46;100610.00;;;9.39;72.81
12594;BME280;6362;50.208;9.182;2023-04-19T01:37:12;100607.38;;;9.36;72.80
12594;BME280;6362;50.208;9.182;2023-04-19T01:39:37;100612.53;;;9.32;73.33
12594;BME280;6362;50.208;9.182;2023-04-19T01:42:03;100598.63;;;9.25;73.44
12594;BME280;6362;50.208;9.182;2023-04-19T01:44:28;100608.09;;;9.17;73.86
12594;BME280;6362;50.208;9.182;2023-04-19T01:46:54;100598.50;;;9.08;74.86
12594;BME280;6362;50.208;9.182;2023-04-19T01:49:20;100601.88;;;8.99;75.00
12594;BME280;6362;50.208;9.182;2023-04-19T01:51:45;100601.78;;;8.93;75.38
12594;BME280;6362;50.208;9.182;2023-04-19T01:54:11;100595.69;;;8.85;75.65
12594;BME280;6362;50.208;9.182;2023-04-19T01:56:36;100601.69;;;8.83;76.03
12594;BME280;6362;50.208;9.182;2023-04-19T01:59:02;100594.63;;;8.68;76.71
12594;BME280;6362;50.208;9.182;2023-04-19T02:01:28;100600.69;;;8.70;76.33
12594;BME280;6362;50.208;9.182;2023-04-19T02:03:53;100592.03;;;8.68;76.48
12594;BME280;6362;50.208;9.182;2023-04-19T02:06:19;100594.66;;;8.69;76.62
12594;BME280;6362;50.208;9.182;2023-04-19T02:08:44;100583.41;;;8.69;77.08
12594;BME280;6362;50.208;9.182;2023-04-19T02:11:11;100587.72;;;8.68;77.32
12594;BME280;6362;50.208;9.182;2023-04-19T02:13:40;100588.59;;;8.69;77.21
12594;BME280;6362;50.208;9.182;2023-04-19T02:16:06;100573.91;;;8.69;77.18
12594;BME280;6362;50.208;9.182;2023-04-19T02:18:32;100585.19;;;8.73;77.31
12594;BME280;6362;50.208;9.182;2023-04-19T02:21:03;100581.72;;;8.74;77.38
12594;BME280;6362;50.208;9.182;2023-04-19T02:23:28;100572.22;;;8.76;77.18
12594;BME280;6362;50.208;9.182;2023-04-19T02:25:54;100572.28;;;8.78;77.12
12594;BME280;6362;50.208;9.182;2023-04-19T02:28:19;100582.66;;;8.82;77.48
12594;BME280;6362;50.208;9.182;2023-04-19T02:30:44;100581.78;;;8.82;77.14
12594;BME280;6362;50.208;9.182;2023-04-19T02:33:10;100575.78;;;8.86;77.38
12594;BME280;6362;50.208;9.182;2023-04-19T02:35:36;100572.28;;;8.82;77.83
12594;BME280;6362;50.208;9.182;2023-04-19T02:38:02;100574.94;;;8.85;77.54
12594;BME280;6362;50.208;9.182;2023-04-19T02:40:28;100570.59;;;8.86;77.46
12594;BME280;6362;50.208;9.182;2023-04-19T02:42:54;100569.78;;;8.88;77.60
12594;BME280;6362;50.208;9.182;2023-04-19T02:45:19;100570.66;;;8.89;77.23
12594;BME280;6362;50.208;9.182;2023-04-19T02:47:45;100565.47;;;8.92;77.39
12594;BME280;6362;50.208;9.182;2023-04-19T02:50:11;100562.06;;;8.96;77.21
12594;BME280;6362;50.208;9.182;2023-04-19T02:52:36;100563.78;;;8.97;76.94
12594;BME280;6362;50.208;9.182;2023-04-19T02:55:02;100571.63;;;9.00;76.80
12594;BME280;6362;50.208;9.182;2023-04-19T02:57:29;100566.44;;;9.03;76.75
12594;BME280;6362;50.208;9.182;2023-04-19T02:59:54;100568.22;;;9.07;77.11
12594;BME280;6362;50.208;9.182;2023-04-19T03:02:20;100563.06;;;9.12;77.27
12594;BME280;6362;50.208;9.182;2023-04-19T03:04:45;100565.63;;;9.10;77.44
12594;BME280;6362;50.208;9.182;2023-04-19T03:07:11;100559.56;;;9.08;77.75
12594;BME280;6362;50.208;9.182;2023-04-19T03:09:37;100563.88;;;9.06;77.77
12594;BME280;6362;50.208;9.182;2023-04-19T03:12:02;100556.09;;;9.06;77.98
12594;BME280;6362;50.208;9.182;2023-04-19T03:14:28;100552.66;;;9.09;78.15
12594;BME280;6362;50.208;9.182;2023-04-19T03:16:53;100550.88;;;9.05;78.61
12594;BME280;6362;50.208;9.182;2023-04-19T03:19:19;100550.88;;;9.03;78.98
12594;BME280;6362;50.208;9.182;2023-04-19T03:21:44;100550.00;;;9.04;78.68
12594;BME280;6362;50.208;9.182;2023-04-19T03:24:09;100544.88;;;9.09;79.50
12594;BME280;6362;50.208;9.182;2023-04-19T03:26:35;100535.31;;;9.03;79.26
12594;BME280;6362;50.208;9.182;2023-04-19T03:29:00;100539.63;;;9.04;79.49
12594;BME280;6362;50.208;9.182;2023-04-19T03:31:26;100537.03;;;9.04;80.01
12594;BME280;6362;50.208;9.182;2023-04-19T03:33:51;100538.75;;;9.02;80.15
12594;BME280;6362;50.208;9.182;2023-04-19T03:36:17;100527.53;;;9.02;80.06
12594;BME280;6362;50.208;9.182;2023-04-19T03:38:42;100523.19;;;9.02;80.61
12594;BME280;6362;50.208;9.182;2023-04-19T03:41:23;100514.53;;;9.00;80.75
12594;BME280;6362;50.208;9.182;2023-04-19T03:43:48;100511.09;;;9.01;80.31
12594;BME280;6362;50.208;9.182;2023-04-19T03:46:14;100511.94;;;9.00;80.73
12594;BME280;6362;50.208;9.182;2023-04-19T03:48:39;100511.09;;;9.01;80.63
12594;BME280;6362;50.208;9.182;2023-04-19T03:51:05;100506.72;;;8.98;81.28
12594;BME280;6362;50.208;9.182;2023-04-19T03:53:30;100504.13;;;8.98;80.75
12594;BME280;6362;50.208;9.182;2023-04-19T03:55:55;100505.84;;;8.95;81.29
12594;BME280;6362;50.208;9.182;2023-04-19T03:58:21;100510.19;;;8.94;81.26
12594;BME280;6362;50.208;9.182;2023-04-19T04:00:47;100507.56;;;8.94;81.33
12594;BME280;6362;50.208;9.182;2023-04-19T04:03:12;100505.00;;;8.96;81.43
12594;BME280;6362;50.208;9.182;2023-04-19T04:05:38;100504.13;;;8.95;80.85
12594;BME280;6362;50.208;9.182;2023-04-19T04:08:03;100506.72;;;8.98;80.71
12594;BME280;6362;50.208;9.182;2023-04-19T04:10:29;100501.53;;;8.98;80.26
12594;BME280;6362;50.208;9.182;2023-04-19T04:12:54;100503.25;;;8.95;80.10
12594;BME280;6362;50.208;9.182;2023-04-19T04:15:19;100506.72;;;8.98;79.79
12594;BME280;6362;50.208;9.182;2023-04-19T04:17:45;100511.09;;;8.99;79.90
12594;BME280;6362;50.208;9.182;2023-04-19T04:20:11;100506.75;;;9.02;79.80
12594;BME280;6362;50.208;9.182;2023-04-19T04:22:46;100509.34;;;9.02;79.66
12594;BME280;6362;50.208;9.182;2023-04-19T04:25:13;100501.53;;;8.98;79.45
12594;BME280;6362;50.208;9.182;2023-04-19T04:27:40;100495.47;;;8.96;79.51
12594;BME280;6362;50.208;9.182;2023-04-19T04:30:08;100504.16;;;9.00;79.13
12594;BME280;6362;50.208;9.182;2023-04-19T04:32:35;100505.00;;;8.96;78.63
12594;BME280;6362;50.208;9.182;2023-04-19T04:35:01;100501.56;;;9.02;78.21
12594;BME280;6362;50.208;9.182;2023-04-19T04:37:28;100499.84;;;9.01;77.87
12594;BME280;6362;50.208;9.182;2023-04-19T04:39:55;100505.03;;;9.01;77.98
12594;BME280;6362;50.208;9.182;2023-04-19T04:42:20;100507.59;;;8.99;77.46
12594;BME280;6362;50.208;9.182;2023-04-19T04:44:46;100505.81;;;8.92;77.04
12594;BME280;6362;50.208;9.182;2023-04-19T04:47:12;100517.00;;;8.86;76.90
12594;BME280;6362;50.208;9.182;2023-04-19T04:49:38;100513.56;;;8.87;76.80
12594;BME280;6362;50.208;9.182;2023-04-19T04:52:03;100507.50;;;8.84;76.72
12594;BME280;6362;50.208;9.182;2023-04-19T04:54:29;100512.69;;;8.85;76.73
12594;BME280;6362;50.208;9.182;2023-04-19T04:56:54;100501.44;;;8.88;76.18
12594;BME280;6362;50.208;9.182;2023-04-19T04:59:20;100507.53;;;8.90;76.09
12594;BME280;6362;50.208;9.182;2023-04-19T05:01:45;100511.91;;;8.95;76.30
12594;BME280;6362;50.208;9.182;2023-04-19T05:04:11;100509.34;;;9.02;75.39
12594;BME280;6362;50.208;9.182;2023-04-19T05:06:36;100515.47;;;9.07;75.08
12594;BME280;6362;50.208;9.182;2023-04-19T05:09:05;100509.44;;;9.12;75.10
12594;BME280;6362;50.208;9.182;2023-04-19T05:11:30;100512.09;;;9.18;75.12
12594;BME280;6362;50.208;9.182;2023-04-19T05:13:56;100506.88;;;9.17;74.94
12594;BME280;6362;50.208;9.182;2023-04-19T05:16:21;100512.09;;;9.20;74.75
12594;BME280;6362;50.208;9.182;2023-04-19T05:18:47;100506.94;;;9.24;74.49
12594;BME280;6362;50.208;9.182;2023-04-19T05:21:12;100508.66;;;9.25;74.10
12594;BME280;6362;50.208;9.182;2023-04-19T05:23:38;100513.03;;;9.30;73.92
12594;BME280;6362;50.208;9.182;2023-04-19T05:26:04;100509.50;;;9.21;74.34
12594;BME280;6362;50.208;9.182;2023-04-19T05:28:29;100509.53;;;9.24;73.71
12594;BME280;6362;50.208;9.182;2023-04-19T05:30:54;100506.94;;;9.23;73.72
12594;BME280;6362;50.208;9.182;2023-04-19T05:33:20;100506.06;;;9.25;73.17
12594;BME280;6362;50.208;9.182;2023-04-19T05:35:45;100501.75;;;9.24;72.81
12594;BME280;6362;50.208;9.182;2023-04-19T05:38:11;100509.50;;;9.20;72.87
12594;BME280;6362;50.208;9.182;2023-04-19T05:40:36;100500.88;;;9.22;72.37
12594;BME280;6362;50.208;9.182;2023-04-19T05:43:02;100503.44;;;9.19;71.95
12594;BME280;6362;50.208;9.182;2023-04-19T05:45:28;100500.88;;;9.24;71.59
12594;BME280;6362;50.208;9.182;2023-04-19T05:47:53;100503.47;;;9.25;71.10
12594;BME280;6362;50.208;9.182;2023-04-19T05:50:19;100505.25;;;9.31;70.01
12594;BME280;6362;50.208;9.182;2023-04-19T05:52:45;100492.22;;;9.26;69.47
12594;BME280;6362;50.208;9.182;2023-04-19T05:55:10;100489.63;;;9.26;69.26
12594;BME280;6362;50.208;9.182;2023-04-19T05:57:36;100485.31;;;9.22;68.87
12594;BME280;6362;50.208;9.182;2023-04-19T06:00:02;100487.03;;;9.23;68.14
12594;BME280;6362;50.208;9.182;2023-04-19T06:02:28;100483.75;;;9.50;70.13
12594;BME280;6362;50.208;9.182;2023-04-19T06:04:54;100489.03;;;9.69;69.35
12594;BME280;6362;50.208;9.182;2023-04-19T06:07:22;100488.97;;;9.57;67.05
12594;BME280;6362;50.208;9.182;2023-04-19T06:09:47;100499.41;;;9.67;66.37
12594;BME280;6362;50.208;9.182;2023-04-19T06:12:13;100493.38;;;9.74;66.19
12594;BME280;6362;50.208;9.182;2023-04-19T06:14:38;100495.19;;;9.91;65.73
12594;BME280;6362;50.208;9.182;2023-04-19T06:17:04;100496.00;;;9.82;64.81
12594;BME280;6362;50.208;9.182;2023-04-19T06:19:29;100496.94;;;9.89;65.12
12594;BME280;6362;50.208;9.182;2023-04-19T06:21:58;100497.69;;;9.71;64.81
12594;BME280;6362;50.208;9.182;2023-04-19T06:24:23;100498.53;;;9.62;64.03
12594;BME280;6362;50.208;9.182;2023-04-19T06:26:49;100493.28;;;9.59;64.84
12594;BME280;6362;50.208;9.182;2023-04-19T06:29:14;100498.50;;;9.58;65.39
12594;BME280;6362;50.208;9.182;2023-04-19T06:31:40;100488.94;;;9.53;65.15
12594;BME280;6362;50.208;9.182;2023-04-19T06:34:05;100495.94;;;9.62;65.04
12594;BME280;6362;50.208;9.182;2023-04-19T06:36:31;100502.84;;;9.63;64.59
12594;BME280;6362;50.208;9.182;2023-04-19T06:38:56;100503.69;;;9.59;64.64
12594;BME280;6362;50.208;9.182;2023-04-19T06:41:22;100499.41;;;9.67;64.79
12594;BME280;6362;50.208;9.182;2023-04-19T06:43:47;100502.94;;;9.78;64.19
12594;BME280;6362;50.208;9.182;2023-04-19T06:46:13;100496.00;;;9.81;64.58
12594;BME280;6362;50.208;9.182;2023-04-19T06:48:38;100492.50;;;9.69;64.08
12594;BME280;6362;50.208;9.182;2023-04-19T06:51:04;100493.34;;;9.70;64.24
12594;BME280;6362;50.208;9.182;2023-04-19T06:53:29;100494.19;;;9.64;64.03
12594;BME280;6362;50.208;9.182;2023-04-19T06:55:58;100487.28;;;9.66;64.24
12594;BME280;6362;50.208;9.182;2023-04-19T06:58:25;100475.13;;;9.59;64.25
12594;BME280;6362;50.208;9.182;2023-04-19T07:00:51;100479.53;;;9.72;65.14
12594;BME280;6362;50.208;9.182;2023-04-19T07:03:16;100473.44;;;9.70;63.83
12594;BME280;6362;50.208;9.182;2023-04-19T07:05:41;100480.38;;;9.68;63.88
12594;BME280;6362;50.208;9.182;2023-04-19T07:08:07;100474.31;;;9.68;63.73
12594;BME280;6362;50.208;9.182;2023-04-19T07:10:32;100476.06;;;9.76;64.45
12594;BME280;6362;50.208;9.182;2023-04-19T07:12:58;100486.47;;;9.79;64.47
12594;BME280;6362;50.208;9.182;2023-04-19T07:15:23;100478.75;;;9.90;63.66
12594;BME280;6362;50.208;9.182;2023-04-19T07:17:48;100484.84;;;10.01;63.68
12594;BME280;6362;50.208;9.182;2023-04-19T07:20:14;100482.25;;;10.09;63.42
12594;BME280;6362;50.208;9.182;2023-04-19T07:22:40;100480.56;;;10.11;62.79
12594;BME280;6362;50.208;9.182;2023-04-19T07:25:05;100473.69;;;10.25;61.63
12594;BME280;6362;50.208;9.182;2023-04-19T07:27:31;100465.88;;;10.25;61.58
12594;BME280;6362;50.208;9.182;2023-04-19T07:29:56;100464.16;;;10.37;61.32
12594;BME280;6362;50.208;9.182;2023-04-19T07:32:22;100465.06;;;10.39;60.46
12594;BME280;6362;50.208;9.182;2023-04-19T07:34:47;100462.47;;;10.51;60.42
12594;BME280;6362;50.208;9.182;2023-04-19T07:37:12;100466.81;;;10.58;59.29
12594;BME280;6362;50.208;9.182;2023-04-19T07:39:38;100461.63;;;10.79;59.79
12594;BME280;6362;50.208;9.182;2023-04-19T07:42:04;100465.94;;;11.02;58.32
12594;BME280;6362;50.208;9.182;2023-04-19T07:44:29;100458.13;;;11.06;57.73
12594;BME280;6362;50.208;9.182;2023-04-19T07:46:55;100449.44;;;11.15;56.83
12594;BME280;6362;50.208;9.182;2023-04-19T07:49:20;100455.50;;;11.28;56.91
12594;BME280;6362;50.208;9.182;2023-04-19T07:51:46;100455.47;;;11.32;56.24
12594;BME280;6362;50.208;9.182;2023-04-19T07:54:11;100452.00;;;11.41;56.46
12594;BME280;6362;50.208;9.182;2023-04-19T07:56:37;100444.16;;;11.43;56.54
12594;BME280;6362;50.208;9.182;2023-04-19T07:59:02;100447.56;;;11.64;56.46
12594;BME280;6362;50.208;9.182;2023-04-19T08:01:31;100443.97;;;12.02;56.38
12594;BME280;6362;50.208;9.182;2023-04-19T08:03:56;100443.69;;;12.47;55.63
12594;BME280;6362;50.208;9.182;2023-04-19T08:06:21;100443.53;;;12.65;53.97
12594;BME280;6362;50.208;9.182;2023-04-19T08:08:47;100449.47;;;12.87;53.81
12594;BME280;6362;50.208;9.182;2023-04-19T08:11:13;100450.03;;;13.23;52.71
12594;BME280;6362;50.208;9.182;2023-04-19T08:13:38;100451.09;;;13.00;50.75
12594;BME280;6362;50.208;9.182;2023-04-19T08:16:04;100443.03;;;13.25;50.83
12594;BME280;6362;50.208;9.182;2023-04-19T08:18:30;100447.22;;;13.41;50.35
12594;BME280;6362;50.208;9.182;2023-04-19T08:20:55;100442.75;;;13.52;49.43
12594;BME280;6362;50.208;9.182;2023-04-19T08:23:21;100443.16;;;13.91;49.11
12594;BME280;6362;50.208;9.182;2023-04-19T08:25:46;100439.41;;;14.10;48.89
12594;BME280;6362;50.208;9.182;2023-04-19T08:28:12;100445.19;;;14.34;48.55
12594;BME280;6362;50.208;9.182;2023-04-19T08:30:38;100451.50;;;14.19;47.31
12594;BME280;6362;50.208;9.182;2023-04-19T08:33:04;100442.94;;;14.08;48.13
12594;BME280;6362;50.208;9.182;2023-04-19T08:35:29;100449.06;;;14.04;47.27
12594;BME280;6362;50.208;9.182;2023-04-19T08:37:55;100436.88;;;14.06;47.37
12594;BME280;6362;50.208;9.182;2023-04-19T08:40:20;100446.38;;;14.11;47.95
12594;BME280;6362;50.208;9.182;2023-04-19T08:42:46;100455.19;;;14.03;47.80
12594;BME280;6362;50.208;9.182;2023-04-19T08:45:11;100444.41;;;14.25;47.50
12594;BME280;6362;50.208;9.182;2023-04-19T08:47:40;100438.91;;;14.45;47.84
12594;BME280;6362;50.208;9.182;2023-04-19T08:50:07;100447.41;;;14.61;47.57
12594;BME280;6362;50.208;9.182;2023-04-19T08:52:34;100445.19;;;14.32;46.41
12594;BME280;6362;50.208;9.182;2023-04-19T08:55:04;100434.09;;;14.15;47.12
12594;BME280;6362;50.208;9.182;2023-04-19T08:57:31;100434.91;;;14.21;47.14
12594;BME280;6362;50.208;9.182;2023-04-19T08:59:57;100435.38;;;14.46;46.48
12594;BME280;6362;50.208;9.182;2023-04-19T09:02:23;100428.22;;;13.99;46.19
12594;BME280;6362;50.208;9.182;2023-04-19T09:04:48;100439.13;;;14.30;46.80
12594;BME280;6362;50.208;9.182;2023-04-19T09:07:24;100442.66;;;14.27;45.49
12594;BME280;6362;50.208;9.182;2023-04-19T09:10:06;100449.16;;;13.97;45.70
12594;BME280;6362;50.208;9.182;2023-04-19T09:12:36;100443.53;;;13.59;46.34
12594;BME280;6362;50.208;9.182;2023-04-19T09:15:03;100449.91;;;13.35;46.63
12594;BME280;6362;50.208;9.182;2023-04-19T09:17:30;100445.56;;;13.34;46.53
12594;BME280;6362;50.208;9.182;2023-04-19T09:19:56;100458.91;;;13.05;46.75
12594;BME280;6362;50.208;9.182;2023-04-19T09:22:22;100448.38;;;13.09;47.59
12594;BME280;6362;50.208;9.182;2023-04-19T09:24:48;100445.72;;;13.15;47.58
12594;BME280;6362;50.208;9.182;2023-04-19T09:27:24;100441.13;;;13.42;46.50
12594;BME280;6362;50.208;9.182;2023-04-19T09:29:55;100431.13;;;13.78;46.29
12594;BME280;6362;50.208;9.182;2023-04-19T09:32:21;100424.13;;;14.41;45.20
12594;BME280;6362;50.208;9.182;2023-04-19T09:34:57;100445.31;;;14.83;45.37
12594;BME280;6362;50.208;9.182;2023-04-19T09:37:24;100421.31;;;14.57;43.39
12594;BME280;6362;50.208;9.182;2023-04-19T09:39:50;100433.94;;;14.27;42.59
12594;BME280;6362;50.208;9.182;2023-04-19T09:42:16;100428.13;;;14.07;44.27
12594;BME280;6362;50.208;9.182;2023-04-19T09:44:56;100419.63;;;14.52;43.78
12594;BME280;6362;50.208;9.182;2023-04-19T09:47:26;100417.28;;;14.88;43.29
12594;BME280;6362;50.208;9.182;2023-04-19T09:50:07;100409.47;;;15.33;43.45
12594;BME280;6362;50.208;9.182;2023-04-19T09:52:33;100412.75;;;15.44;43.24
12594;BME280;6362;50.208;9.182;2023-04-19T09:55:03;100412.09;;;15.78;41.32
12594;BME280;6362;50.208;9.182;2023-04-19T09:57:30;100401.47;;;15.84;41.01
12594;BME280;6362;50.208;9.182;2023-04-19T09:59:57;100416.53;;;15.74;39.27
12594;BME280;6362;50.208;9.182;2023-04-19T10:02:25;100419.66;;;15.48;39.77
12594;BME280;6362;50.208;9.182;2023-04-19T10:04:52;100408.22;;;15.52;39.20
12594;BME280;6362;50.208;9.182;2023-04-19T10:07:20;100404.78;;;15.49;37.98
12594;BME280;6362;50.208;9.182;2023-04-19T10:09:47;100391.81;;;14.96;37.67
12594;BME280;6362;50.208;9.182;2023-04-19T10:12:14;100396.47;;;15.28;39.35
12594;BME280;6362;50.208;9.182;2023-04-19T10:14:41;100397.72;;;15.52;37.16
12594;BME280;6362;50.208;9.182;2023-04-19T10:17:06;100394.84;;;16.06;37.89
12594;BME280;6362;50.208;9.182;2023-04-19T10:19:34;100385.19;;;16.08;35.63
12594;BME280;6362;50.208;9.182;2023-04-19T10:22:00;100391.19;;;16.14;35.47
12594;BME280;6362;50.208;9.182;2023-04-19T10:24:29;100368.59;;;15.68;34.64
12594;BME280;6362;50.208;9.182;2023-04-19T10:27:15;100407.34;;;15.95;36.42
12594;BME280;6362;50.208;9.182;2023-04-19T10:32:26;100379.84;;;15.73;35.79
12594;BME280;6362;50.208;9.182;2023-04-19T10:34:52;100377.41;;;16.05;35.68
12594;BME280;6362;50.208;9.182;2023-04-19T10:37:24;100375.38;;;16.52;35.48
12594;BME280;6362;50.208;9.182;2023-04-19T10:39:51;100383.00;;;16.97;35.21
12594;BME280;6362;50.208;9.182;2023-04-19T10:42:17;100367.97;;;16.34;34.36
12594;BME280;6362;50.208;9.182;2023-04-19T10:48:02;100381.53;;;16.87;31.80
12594;BME280;6362;50.208;9.182;2023-04-19T10:50:28;100356.44;;;16.75;31.54
12594;BME280;6362;50.208;9.182;2023-04-19T10:52:53;100355.53;;;16.76;31.29
12594;BME280;6362;50.208;9.182;2023-04-19T10:55:19;100347.25;;;16.92;31.08
12594;BME280;6362;50.208;9.182;2023-04-19T10:58:03;100354.81;;;17.04;30.06
12594;BME280;6362;50.208;9.182;2023-04-19T11:00:29;100351.59;;;16.94;31.05
12594;BME280;6362;50.208;9.182;2023-04-19T11:02:58;100332.97;;;17.33;30.13
12594;BME280;6362;50.208;9.182;2023-04-19T11:05:24;100337.03;;;17.43;29.92
12594;BME280;6362;50.208;9.182;2023-04-19T11:07:50;100332.88;;;17.65;29.46
12594;BME280;6362;50.208;9.182;2023-04-19T11:10:27;100335.44;;;18.25;28.50
12594;BME280;6362;50.208;9.182;2023-04-19T11:12:53;100327.31;;;17.76;29.13
12594;BME280;6362;50.208;9.182;2023-04-19T11:15:21;100332.63;;;17.75;28.65
12594;BME280;6362;50.208;9.182;2023-04-19T11:17:51;100328.72;;;17.29;27.25
12594;BME280;6362;50.208;9.182;2023-04-19T11:20:17;100313.91;;;17.56;28.77
12594;BME280;6362;50.208;9.182;2023-04-19T11:22:46;100338.47;;;16.93;26.54
12594;BME280;6362;50.208;9.182;2023-04-19T11:25:12;100326.44;;;17.15;28.19
12594;BME280;6362;50.208;9.182;2023-04-19T11:27:39;100326.28;;;17.21;28.04
12594;BME280;6362;50.208;9.182;2023-04-19T11:30:10;100338.44;;;16.94;26.85
12594;BME280;6362;50.208;9.182;2023-04-19T11:32:43;100328.28;;;16.46;27.64
12594;BME280;6362;50.208;9.182;2023-04-19T11:35:10;100324.41;;;16.95;27.43
12594;BME280;6362;50.208;9.182;2023-04-19T11:37:36;100308.03;;;17.17;27.45
12594;BME280;6362;50.208;9.182;2023-04-19T11:40:04;100298.88;;;17.59;27.03
12594;BME280;6362;50.208;9.182;2023-04-19T11:42:30;100304.72;;;17.69;25.85
12594;BME280;6362;50.208;9.182;2023-04-19T11:44:56;100302.22;;;17.94;26.03
12594;BME280;6362;50.208;9.182;2023-04-19T11:47:23;100291.56;;;17.97;23.76
12594;BME280;6362;50.208;9.182;2023-04-19T11:49:49;100293.56;;;17.61;24.59
12594;BME280;6362;50.208;9.182;2023-04-19T11:52:22;100304.56;;;18.30;23.65
12594;BME280;6362;50.208;9.182;2023-04-19T11:54:52;100295.69;;;18.06;22.93
12594;BME280;6362;50.208;9.182;2023-04-19T11:57:28;100297.44;;;18.32;23.99
12594;BME280;6362;50.208;9.182;2023-04-19T12:00:05;100287.09;;;18.27;23.59
12594;BME280;6362;50.208;9.182;2023-04-19T12:02:36;100289.44;;;18.61;24.43
12594;BME280;6362;50.208;9.182;2023-04-19T12:05:12;100290.75;;;19.23;23.69
12594;BME280;6362;50.208;9.182;2023-04-19T12:08:01;100275.31;;;19.12;24.59
12594;BME280;6362;50.208;9.182;2023-04-19T12:10:27;100270.50;;;19.00;24.89
12594;BME280;6362;50.208;9.182;2023-04-19T12:12:53;100263.09;;;18.61;22.89
12594;BME280;6362;50.208;9.182;2023-04-19T12:15:18;100264.69;;;18.40;24.27
12594;BME280;6362;50.208;9.182;2023-04-19T12:18:00;100261.59;;;18.79;23.61
12594;BME280;6362;50.208;9.182;2023-04-19T12:20:32;100273.47;;;18.91;23.00
12594;BME280;6362;50.208;9.182;2023-04-19T12:22:58;100251.75;;;18.84;21.43
12594;BME280;6362;50.208;9.182;2023-04-19T12:25:30;100257.28;;;19.47;23.40
12594;BME280;6362;50.208;9.182;2023-04-19T12:27:56;100270.88;;;19.60;21.68
12594;BME280;6362;50.208;9.182;2023-04-19T12:30:22;100252.69;;;19.07;22.04
12594;BME280;6362;50.208;9.182;2023-04-19T12:32:47;100249.44;;;18.75;22.40
12594;BME280;6362;50.208;9.182;2023-04-19T12:35:13;100245.88;;;18.76;21.08
12594;BME280;6362;50.208;9.182;2023-04-19T12:37:38;100261.53;;;19.06;22.63
12594;BME280;6362;50.208;9.182;2023-04-19T12:40:04;100249.75;;;19.14;21.73
12594;BME280;6362;50.208;9.182;2023-04-19T12:42:29;100224.50;;;18.60;21.02
12594;BME280;6362;50.208;9.182;2023-04-19T12:44:55;100246.88;;;19.20;22.10
12594;BME280;6362;50.208;9.182;2023-04-19T12:47:20;100232.78;;;18.75;21.07
12594;BME280;6362;50.208;9.182;2023-04-19T12:49:46;100245.94;;;19.45;19.84
12594;BME280;6362;50.208;9.182;2023-04-19T12:52:11;100239.19;;;19.61;18.62
12594;BME280;6362;50.208;9.182;2023-04-19T12:54:36;100235.03;;;19.54;18.38
12594;BME280;6362;50.208;9.182;2023-04-19T12:57:02;100253.66;;;19.95;18.50
12594;BME280;6362;50.208;9.182;2023-04-19T12:59:28;100235.53;;;19.86;19.26
12594;BME280;6362;50.208;9.182;2023-04-19T13:01:54;100227.31;;;19.49;19.01
12594;BME280;6362;50.208;9.182;2023-04-19T13:04:19;100235.50;;;18.96;20.45
12594;BME280;6362;50.208;9.182;2023-04-19T13:06:44;100262.84;;;18.69;21.73
12594;BME280;6362;50.208;9.182;2023-04-19T13:09:10;100237.88;;;19.03;22.52